createdAt,value
2019-02-22T00:01:54.860Z,74.60
2019-02-22T00:04:25.698Z,74.56
2019-02-22T00:06:56.683Z,74.68
2019-02-22T00:09:27.488Z,75.44
2019-02-22T00:11:58.364Z,75.50
2019-02-22T00:14:29.495Z,75.64
2019-02-22T00:17:00.551Z,75.54
2019-02-22T00:19:31.423Z,75.39
2019-02-22T00:22:02.339Z,75.50
2019-02-22T00:24:33.226Z,75.63
2019-02-22T00:27:04.158Z,75.60
2019-02-22T00:29:35.036Z,75.41
2019-02-22T00:32:05.941Z,76.19
2019-02-22T00:34:36.996Z,76.78
2019-02-22T00:37:07.915Z,76.94
2019-02-22T00:39:38.792Z,76.42
2019-02-22T00:42:09.615Z,76.13
2019-02-22T00:44:40.410Z,76.24
2019-02-22T00:47:11.320Z,75.88
2019-02-22T00:49:42.196Z,76.62
2019-02-22T00:52:13.771Z,76.65
2019-02-22T00:54:44.676Z,77.03
2019-02-22T00:57:15.681Z,77.33
2019-02-22T00:59:46.507Z,77.68
2019-02-22T01:02:17.294Z,76.83
2019-02-22T01:04:48.577Z,76.62
2019-02-22T01:07:19.383Z,75.72
2019-02-22T01:09:50.259Z,74.31
2019-02-22T01:12:21.249Z,74.65
2019-02-22T01:14:52.126Z,74.41
2019-02-22T01:17:23.022Z,74.71
2019-02-22T01:19:53.818Z,74.75
2019-02-22T01:22:24.811Z,75.83
2019-02-22T01:24:55.797Z,76.37
2019-02-22T01:27:26.573Z,76.12
2019-02-22T01:29:57.970Z,75.96
2019-02-22T01:32:28.874Z,76.36
2019-02-22T01:34:59.789Z,75.92
2019-02-22T01:37:30.792Z,76.02
2019-02-22T01:40:01.708Z,76.43
2019-02-22T01:42:33.633Z,77.21
2019-02-22T01:45:04.645Z,77.00
2019-02-22T01:47:35.429Z,76.63
2019-02-22T01:50:06.413Z,77.02
2019-02-22T01:52:37.251Z,77.05
2019-02-22T01:55:08.121Z,77.50
2019-02-22T01:57:39.448Z,77.24
2019-02-22T02:00:11.428Z,77.63
2019-02-22T02:02:43.028Z,77.10
2019-02-22T02:05:13.974Z,76.93
2019-02-22T02:07:44.983Z,76.49
2019-02-22T02:10:16.075Z,76.72
2019-02-22T02:12:46.845Z,76.93
2019-02-22T02:15:17.768Z,76.92
2019-02-22T02:17:48.518Z,76.91
2019-02-22T02:20:19.480Z,76.68
2019-02-22T02:22:51.483Z,76.71
2019-02-22T02:25:22.266Z,77.30
2019-02-22T02:27:53.347Z,76.93
2019-02-22T02:30:24.155Z,76.86
2019-02-22T02:32:55.211Z,76.60
2019-02-22T02:35:26.112Z,77.39
2019-02-22T02:37:57.406Z,78.22
2019-02-22T02:40:28.411Z,77.54
2019-02-22T02:42:59.303Z,78.11
2019-02-22T02:45:30.072Z,77.57
2019-02-22T02:48:00.972Z,77.82
2019-02-22T02:50:31.847Z,77.95
2019-02-22T02:53:02.769Z,78.04
2019-02-22T02:55:35.063Z,77.90
2019-02-22T02:58:06.043Z,77.92
2019-02-22T03:00:37.207Z,77.78
2019-02-22T03:03:08.046Z,77.53
2019-02-22T03:05:57.857Z,77.07
2019-02-22T03:08:32.483Z,77.46
2019-02-22T03:11:03.232Z,78.02
2019-02-22T03:13:34.198Z,77.84
2019-02-22T03:16:05.330Z,77.54
2019-02-22T03:18:36.146Z,76.93
2019-02-22T03:21:07.133Z,76.98
2019-02-22T03:23:38.027Z,77.23
2019-02-22T03:26:09.192Z,77.44
2019-02-22T03:28:40.095Z,77.30
2019-02-22T03:31:11.342Z,77.62
2019-02-22T03:33:42.296Z,77.95
2019-02-22T03:36:13.089Z,78.02
2019-02-22T03:38:43.851Z,77.59
2019-02-22T03:41:14.751Z,77.61
2019-02-22T03:43:45.625Z,77.87
2019-02-22T03:46:16.539Z,78.66
2019-02-22T03:48:47.514Z,78.45
2019-02-22T03:51:18.379Z,78.17
2019-02-22T03:54:02.860Z,78.40
2019-02-22T03:56:34.352Z,78.24
2019-02-22T03:59:05.666Z,78.32
2019-02-22T04:01:36.630Z,78.15
2019-02-22T04:04:07.508Z,77.67
2019-02-22T04:06:39.500Z,77.88
2019-02-22T04:09:13.443Z,78.07
2019-02-22T04:11:45.979Z,78.14
2019-02-22T04:14:16.878Z,78.53
2019-02-22T04:16:47.848Z,78.70
2019-02-22T04:19:18.642Z,78.54
2019-02-22T04:21:49.824Z,78.31
2019-02-22T04:24:20.611Z,78.69
2019-02-22T04:26:51.440Z,79.57
2019-02-22T04:29:22.454Z,79.74
2019-02-22T04:31:53.418Z,79.75
2019-02-22T04:34:24.255Z,79.30
2019-02-22T04:36:55.244Z,79.15
2019-02-22T04:39:26.038Z,79.46
2019-02-22T04:41:58.295Z,79.88
2019-02-22T04:44:29.350Z,80.06
2019-02-22T04:47:00.209Z,79.75
2019-02-22T04:49:31.086Z,79.57
2019-02-22T04:52:01.874Z,79.53
2019-02-22T04:54:32.773Z,79.70
2019-02-22T04:57:03.743Z,79.54
2019-02-22T04:59:34.681Z,79.98
2019-02-22T05:02:05.628Z,80.33
2019-02-22T05:04:36.807Z,80.47
2019-02-22T05:07:07.600Z,80.18
2019-02-22T05:09:38.655Z,80.14
2019-02-22T05:12:11.192Z,79.87
2019-02-22T05:14:42.215Z,79.51
2019-02-22T05:17:13.807Z,79.64
2019-02-22T05:19:44.692Z,79.90
2019-02-22T05:22:15.480Z,79.99
2019-02-22T05:24:46.459Z,80.09
2019-02-22T05:27:17.294Z,79.71
2019-02-22T05:29:48.544Z,79.52
2019-02-22T05:32:19.334Z,79.71
2019-02-22T05:34:51.260Z,80.43
2019-02-22T05:37:22.044Z,80.37
2019-02-22T05:39:52.945Z,80.10
2019-02-22T05:42:23.821Z,79.40
2019-02-22T05:44:54.657Z,79.48
2019-02-22T05:47:25.431Z,80.34
2019-02-22T05:49:56.331Z,81.31
2019-02-22T05:52:27.197Z,81.25
2019-02-22T05:54:57.995Z,80.89
2019-02-22T05:57:29.059Z,80.55
2019-02-22T06:00:02.293Z,80.12
2019-02-22T06:02:34.094Z,80.04
2019-02-22T06:05:05.140Z,80.10
2019-02-22T06:07:36.604Z,80.17
2019-02-22T06:10:07.627Z,79.69
2019-02-22T06:12:38.807Z,79.87
2019-02-22T06:15:09.688Z,79.60
2019-02-22T06:17:40.684Z,79.32
2019-02-22T06:20:11.696Z,79.18
2019-02-22T06:22:42.573Z,79.22
2019-02-22T06:25:13.355Z,78.72
2019-02-22T06:27:44.232Z,78.72
2019-02-22T06:30:15.121Z,78.99
2019-02-22T06:32:46.165Z,78.42
2019-02-22T06:35:17.118Z,78.58
2019-02-22T06:37:48.170Z,78.83
2019-02-22T06:40:18.984Z,78.54
2019-02-22T06:42:50.915Z,78.59
2019-02-22T06:45:21.892Z,79.07
2019-02-22T06:47:52.869Z,79.09
2019-02-22T06:50:33.332Z,79.04
2019-02-22T06:52:56.175Z,79.26
2019-02-22T06:55:26.981Z,78.74
2019-02-22T06:57:57.856Z,79.48
2019-02-22T07:00:28.756Z,79.33
2019-02-22T07:02:59.633Z,78.42
2019-02-22T07:05:30.609Z,78.64
2019-02-22T07:08:01.624Z,78.35
2019-02-22T07:10:51.375Z,79.32
2019-02-22T07:13:24.406Z,79.14
2019-02-22T07:15:55.051Z,78.44
2019-02-22T07:18:25.859Z,78.14
2019-02-22T07:20:56.743Z,78.40
2019-02-22T07:23:27.737Z,78.59
2019-02-22T07:25:58.620Z,78.71
2019-02-22T07:28:29.487Z,78.03
2019-02-22T07:31:00.294Z,78.09
2019-02-22T07:33:31.161Z,77.85
2019-02-22T07:36:02.048Z,77.60
2019-02-22T07:38:33.153Z,77.41
2019-02-22T07:41:04.053Z,77.62
2019-02-22T07:43:34.938Z,77.41
2019-02-22T07:46:05.861Z,77.30
2019-02-22T07:48:36.696Z,76.91
2019-02-22T07:51:07.483Z,76.74
2019-02-22T07:53:38.442Z,76.36
2019-02-22T07:56:09.273Z,76.20
2019-02-22T07:58:40.447Z,76.06
2019-02-22T08:01:11.340Z,75.79
2019-02-22T08:03:42.240Z,75.89
2019-02-22T08:06:13.017Z,75.96
2019-02-22T08:08:43.973Z,76.26
2019-02-22T08:11:14.805Z,75.99
2019-02-22T08:13:46.183Z,75.70
2019-02-22T08:16:16.972Z,75.79
2019-02-22T08:18:47.879Z,75.68
2019-02-22T08:21:18.656Z,75.18
2019-02-22T08:23:49.546Z,75.49
2019-02-22T08:26:20.432Z,75.73
2019-02-22T08:28:51.480Z,75.10
2019-02-22T08:31:22.393Z,75.69
2019-02-22T08:33:53.401Z,75.19
2019-02-22T08:36:24.188Z,75.41
2019-02-22T08:38:55.077Z,74.07
2019-02-22T08:41:25.860Z,74.31
2019-02-22T08:43:56.746Z,73.82
2019-02-22T08:46:27.525Z,72.77
2019-02-22T08:48:59.186Z,73.13
2019-02-22T08:51:30.123Z,72.01
2019-02-22T08:54:01.014Z,71.69
2019-02-22T08:56:32.820Z,70.47
2019-02-22T08:59:03.899Z,69.58
2019-02-22T09:01:35.792Z,67.87
2019-02-22T09:04:06.792Z,68.40
2019-02-22T09:06:37.584Z,69.20
2019-02-22T09:09:08.467Z,68.10
2019-02-22T09:11:39.783Z,68.43
2019-02-22T09:14:10.860Z,68.27
2019-02-22T09:16:41.753Z,68.28
2019-02-22T09:19:12.795Z,68.16
2019-02-22T09:21:43.748Z,68.06
2019-02-22T09:24:15.106Z,68.53
2019-02-22T09:26:46.018Z,68.03
2019-02-22T09:29:17.010Z,68.75
2019-02-22T09:31:48.086Z,67.24
2019-02-22T09:34:18.983Z,67.52
2019-02-22T09:36:49.773Z,67.96
2019-02-22T09:39:21.022Z,66.96
2019-02-22T09:41:51.972Z,66.88
2019-02-22T09:44:22.962Z,66.60
2019-02-22T09:46:53.631Z,66.27
2019-02-22T09:49:24.527Z,67.76
2019-02-22T09:51:55.327Z,66.80
2019-02-22T09:54:26.302Z,64.47
2019-02-22T09:56:57.177Z,65.55
2019-02-22T09:59:28.213Z,65.80
2019-02-22T10:01:59.073Z,65.72
2019-02-22T10:04:29.994Z,65.97
2019-02-22T10:07:00.845Z,66.33
2019-02-22T10:09:32.286Z,65.52
2019-02-22T10:12:03.347Z,64.61
2019-02-22T10:14:34.202Z,65.34
2019-02-22T10:17:05.173Z,65.80
2019-02-22T10:19:36.450Z,65.38
2019-02-22T10:22:07.408Z,65.59
2019-02-22T10:24:38.301Z,64.65
2019-02-22T10:27:11.938Z,64.85
2019-02-22T10:29:41.772Z,64.57
2019-02-22T10:32:12.684Z,63.91
2019-02-22T10:34:43.581Z,64.51
2019-02-22T10:37:14.365Z,63.30
2019-02-22T10:39:45.456Z,61.82
2019-02-22T10:42:16.227Z,62.10
2019-02-22T10:44:47.121Z,63.07
2019-02-22T10:47:18.009Z,63.89
2019-02-22T10:49:48.893Z,64.66
2019-02-22T10:52:19.587Z,65.99
2019-02-22T10:54:51.497Z,64.72
2019-02-22T10:57:22.373Z,64.99
2019-02-22T10:59:54.950Z,63.08
2019-02-22T11:02:25.801Z,63.10
2019-02-22T11:04:56.860Z,61.78
2019-02-22T11:07:27.656Z,61.58
2019-02-22T11:09:58.836Z,62.38
2019-02-22T11:12:29.770Z,62.60
2019-02-22T11:15:01.021Z,63.52
2019-02-22T11:17:32.027Z,62.29
2019-02-22T11:20:02.946Z,62.11
2019-02-22T11:22:34.129Z,62.07
2019-02-22T11:25:05.822Z,62.43
2019-02-22T11:27:36.721Z,61.90
2019-02-22T11:30:08.880Z,62.43
2019-02-22T11:32:39.929Z,61.62
2019-02-22T11:35:10.819Z,61.90
2019-02-22T11:37:41.893Z,61.27
2019-02-22T11:40:13.105Z,61.31
2019-02-22T11:42:43.881Z,60.94
2019-02-22T11:45:14.981Z,62.20
2019-02-22T11:47:45.859Z,61.49
2019-02-22T11:50:16.798Z,61.44
2019-02-22T11:52:47.646Z,61.91
2019-02-22T11:55:19.105Z,62.58
2019-02-22T11:57:50.101Z,61.35
2019-02-22T12:00:22.262Z,61.28
2019-02-22T12:02:53.249Z,61.02
2019-02-22T12:05:25.041Z,62.02
2019-02-22T12:07:55.937Z,62.59
2019-02-22T12:10:27.008Z,62.69
2019-02-22T12:12:57.901Z,63.17
2019-02-22T12:15:31.336Z,63.12
2019-02-22T12:18:01.537Z,63.54
2019-02-22T12:20:32.429Z,63.20
2019-02-22T12:23:03.213Z,63.29
2019-02-22T12:25:34.181Z,63.40
2019-02-22T12:28:05.072Z,62.49
2019-02-22T12:30:36.083Z,63.47
2019-02-22T12:33:06.966Z,63.26
2019-02-22T12:35:38.585Z,63.95
2019-02-22T12:38:09.438Z,63.44
2019-02-22T12:40:40.445Z,62.93
2019-02-22T12:43:11.221Z,63.39
2019-02-22T12:45:42.318Z,63.05
2019-02-22T12:48:13.097Z,62.95
2019-02-22T12:50:44.017Z,64.01
2019-02-22T12:53:14.884Z,63.59
2019-02-22T12:55:45.824Z,63.18
2019-02-22T12:58:16.700Z,62.45
2019-02-22T13:00:47.589Z,62.03
2019-02-22T13:03:18.515Z,61.76
2019-02-22T13:05:49.261Z,62.28
2019-02-22T13:08:20.572Z,62.63
2019-02-22T13:10:51.357Z,61.48
2019-02-22T13:13:22.245Z,61.91
2019-02-22T13:15:53.112Z,62.00
2019-02-22T13:18:24.090Z,62.39
2019-02-22T13:20:54.893Z,61.99
2019-02-22T13:23:25.831Z,61.96
2019-02-22T13:25:56.783Z,61.16
2019-02-22T13:28:27.676Z,60.22
2019-02-22T13:30:58.645Z,60.17
2019-02-22T13:33:29.522Z,60.95
2019-02-22T13:36:00.380Z,60.97
2019-02-22T13:38:31.145Z,61.65
2019-02-22T13:41:02.230Z,61.69
2019-02-22T13:43:33.136Z,60.98
2019-02-22T13:46:04.485Z,61.23
2019-02-22T13:48:35.392Z,60.39
2019-02-22T13:51:07.289Z,60.64
2019-02-22T13:53:38.218Z,60.86
2019-02-22T13:56:09.341Z,61.00
2019-02-22T13:58:40.203Z,61.10
2019-02-22T14:01:11.444Z,59.93
2019-02-22T14:03:42.400Z,60.37
2019-02-22T14:06:13.408Z,60.76
2019-02-22T14:08:44.383Z,60.23
2019-02-22T14:11:16.547Z,60.06
2019-02-22T14:13:47.518Z,60.33
2019-02-22T14:16:18.367Z,60.06
2019-02-22T14:18:49.249Z,59.63
2019-02-22T14:21:20.285Z,59.84
2019-02-22T14:23:51.235Z,60.38
2019-02-22T14:26:22.130Z,60.39
2019-02-22T14:28:52.905Z,59.52
2019-02-22T14:31:23.801Z,59.54
2019-02-22T14:33:54.574Z,59.32
2019-02-22T14:36:25.542Z,59.38
2019-02-22T14:38:56.356Z,58.27
2019-02-22T14:41:28.037Z,59.10
2019-02-22T14:43:59.162Z,58.78
2019-02-22T14:46:30.042Z,57.42
2019-02-22T14:49:00.818Z,57.30
2019-02-22T14:51:31.674Z,56.97
2019-02-22T14:54:02.489Z,57.58
2019-02-22T14:56:33.474Z,57.21
2019-02-22T14:59:04.385Z,57.24
2019-02-22T15:01:35.745Z,57.82
2019-02-22T15:04:06.547Z,58.05
2019-02-22T15:06:40.334Z,57.77
2019-02-22T15:09:10.985Z,57.53
2019-02-22T15:11:42.362Z,57.68
2019-02-22T15:14:14.214Z,58.03
2019-02-22T15:17:13.165Z,58.66
2019-02-22T15:19:44.043Z,58.92
2019-02-22T15:22:15.020Z,59.21
2019-02-22T15:24:45.693Z,58.92
2019-02-22T15:27:16.598Z,59.35
2019-02-22T15:29:47.392Z,59.05
2019-02-22T15:32:18.361Z,59.14
2019-02-22T15:34:49.161Z,58.95
2019-02-22T15:37:21.142Z,58.76
2019-02-22T15:39:51.979Z,58.40
2019-02-22T15:42:22.941Z,58.85
2019-02-22T15:44:53.528Z,58.38
2019-02-22T15:47:24.520Z,58.71
2019-02-22T15:49:55.292Z,58.26
2019-02-22T15:52:26.181Z,58.64
2019-02-22T15:54:56.976Z,59.01
2019-02-22T15:57:28.901Z,58.92
2019-02-22T15:59:59.789Z,59.23
2019-02-22T16:02:30.677Z,59.54
2019-02-22T16:05:09.426Z,59.88
2019-02-22T16:07:44.806Z,60.45
2019-02-22T16:10:14.574Z,60.54
2019-02-22T16:12:45.754Z,60.55
2019-02-22T16:15:17.981Z,61.17
2019-02-22T16:17:48.876Z,61.37
2019-02-22T16:20:19.813Z,61.43
2019-02-22T16:22:51.639Z,61.35
2019-02-22T16:25:22.668Z,61.48
2019-02-22T16:27:53.668Z,61.28
2019-02-22T16:30:25.891Z,61.71
2019-02-22T16:32:56.755Z,61.91
2019-02-22T16:35:27.745Z,62.23
2019-02-22T16:37:59.350Z,62.26
2019-02-22T16:40:30.139Z,62.73
2019-02-22T16:43:01.122Z,62.80
2019-02-22T16:45:31.936Z,63.13
2019-02-22T16:48:02.809Z,63.23
2019-02-22T16:50:33.708Z,63.44
2019-02-22T16:53:05.362Z,63.49
2019-02-22T16:55:36.192Z,63.67
2019-02-22T16:58:07.175Z,63.83
2019-02-22T17:00:38.068Z,63.97
2019-02-22T17:03:08.961Z,64.64
2019-02-22T17:05:40.551Z,64.22
2019-02-22T17:08:11.565Z,64.25
2019-02-22T17:10:42.545Z,64.72
2019-02-22T17:13:14.567Z,64.70
2019-02-22T17:15:45.344Z,65.01
2019-02-22T17:18:16.609Z,64.93
2019-02-22T17:20:47.617Z,64.91
2019-02-22T17:23:18.758Z,65.01
2019-02-22T17:25:49.610Z,65.10
2019-02-22T17:28:20.501Z,65.66
2019-02-22T17:30:51.372Z,65.39
2019-02-22T17:33:22.518Z,65.79
2019-02-22T17:35:53.467Z,65.83
2019-02-22T17:38:24.352Z,65.98
2019-02-22T17:40:55.142Z,65.86
2019-02-22T17:43:26.307Z,66.31
2019-02-22T17:45:57.109Z,66.21
2019-02-22T17:48:28.105Z,66.47
2019-02-22T17:50:58.881Z,66.49
2019-02-22T17:53:29.682Z,66.79
2019-02-22T17:56:00.673Z,66.94
2019-02-22T17:58:33.699Z,67.02
2019-02-22T18:01:05.331Z,67.51
2019-02-22T18:03:37.281Z,67.75
2019-02-22T18:06:08.109Z,67.82
2019-02-22T18:08:38.992Z,67.93
2019-02-22T18:11:09.867Z,68.24
2019-02-22T18:13:41.253Z,68.63
2019-02-22T18:16:12.069Z,68.78
2019-02-22T18:18:42.960Z,68.86
2019-02-22T18:21:13.740Z,68.78
2019-02-22T18:23:44.656Z,68.86
2019-02-22T18:26:15.602Z,69.17
2019-02-22T18:28:46.506Z,69.71
2019-02-22T18:31:17.294Z,70.08
2019-02-22T18:33:48.083Z,69.96
2019-02-22T18:36:18.847Z,70.02
2019-02-22T18:38:50.788Z,70.21
2019-02-22T18:41:21.561Z,69.96
2019-02-22T18:43:52.616Z,70.25
2019-02-22T18:46:23.422Z,70.37
2019-02-22T18:48:54.388Z,70.58
2019-02-22T18:51:25.317Z,71.60
2019-02-22T18:53:56.189Z,71.50
2019-02-22T18:56:26.987Z,71.88
2019-02-22T18:58:58.217Z,71.91
2019-02-22T19:01:29.064Z,71.83
2019-02-22T19:03:59.952Z,72.37
2019-02-22T19:06:30.842Z,72.38
2019-02-22T19:09:01.734Z,72.20
2019-02-22T19:11:34.137Z,72.39
2019-02-22T19:14:05.242Z,72.81
2019-02-22T19:16:36.121Z,73.41
2019-02-22T19:19:07.490Z,73.58
2019-02-22T19:21:38.521Z,73.75
2019-02-22T19:24:09.489Z,74.25
2019-02-22T19:26:41.318Z,74.43
2019-02-22T19:29:12.641Z,74.80
2019-02-22T19:31:43.514Z,75.12
2019-02-22T19:34:15.311Z,75.51
2019-02-22T19:36:46.203Z,75.94
2019-02-22T19:39:17.095Z,76.14
2019-02-22T19:41:48.061Z,75.40
2019-02-22T19:44:18.962Z,75.91
2019-02-22T19:46:49.841Z,76.14
2019-02-22T19:49:20.927Z,76.13
2019-02-22T19:51:51.631Z,75.91
2019-02-22T19:54:23.067Z,75.58
2019-02-22T19:56:53.905Z,74.83
2019-02-22T19:59:24.804Z,74.94
2019-02-22T20:01:55.793Z,74.94
2019-02-22T20:04:26.683Z,75.29
2019-02-22T20:06:59.939Z,75.81
2019-02-22T20:09:30.235Z,76.18
2019-02-22T20:12:01.197Z,76.26
2019-02-22T20:14:32.176Z,76.09
2019-02-22T20:17:02.961Z,76.17
2019-02-22T20:19:33.849Z,76.22
2019-02-22T20:22:04.640Z,75.47
2019-02-22T20:24:35.500Z,75.59
2019-02-22T20:27:06.536Z,74.79
2019-02-22T20:29:37.437Z,74.58
2019-02-22T20:32:09.464Z,74.68
2019-02-22T20:34:40.331Z,74.80
2019-02-22T20:37:11.314Z,74.51
2019-02-22T20:39:42.213Z,74.80
2019-02-22T20:42:12.833Z,74.74
2019-02-22T20:44:43.538Z,74.19
2019-02-22T20:47:14.652Z,74.15
2019-02-22T20:49:45.475Z,74.13
2019-02-22T20:52:16.360Z,73.99
2019-02-22T20:54:47.350Z,73.97
2019-02-22T20:57:18.682Z,73.40
2019-02-22T20:59:49.521Z,73.24
2019-02-22T21:02:20.677Z,73.64
2019-02-22T21:04:51.720Z,73.53
2019-02-22T21:07:22.749Z,73.89
2019-02-22T21:09:53.636Z,73.38
2019-02-22T21:12:24.661Z,73.71
2019-02-22T21:14:55.560Z,73.42
2019-02-22T21:17:26.646Z,73.44
2019-02-22T21:19:57.451Z,73.65
2019-02-22T21:22:28.437Z,72.93
2019-02-22T21:24:59.221Z,72.95
2019-02-22T21:27:30.223Z,72.92
2019-02-22T21:30:00.984Z,73.68
2019-02-22T21:32:32.174Z,73.42
2019-02-22T21:35:03.149Z,72.65
2019-02-22T21:37:34.055Z,73.33
2019-02-22T21:40:04.938Z,73.07
2019-02-22T21:42:35.795Z,73.22
2019-02-22T21:45:07.061Z,73.51
2019-02-22T21:47:39.418Z,73.78
2019-02-22T21:50:13.223Z,73.95
2019-02-22T21:52:44.056Z,73.34
2019-02-22T21:55:14.947Z,73.18
2019-02-22T21:57:45.920Z,73.70
2019-02-22T22:00:18.243Z,73.71
2019-02-22T22:02:49.551Z,73.34
2019-02-22T22:05:20.630Z,73.13
2019-02-22T22:07:51.421Z,73.36
2019-02-22T22:10:22.341Z,73.90
2019-02-22T22:12:53.090Z,73.34
2019-02-22T22:15:24.063Z,73.93
2019-02-22T22:17:54.875Z,73.78
2019-02-22T22:20:25.771Z,73.85
2019-02-22T22:22:56.651Z,73.49
2019-02-22T22:25:27.534Z,73.62
2019-02-22T22:27:58.406Z,73.38
2019-02-22T22:30:29.294Z,73.59
2019-02-22T22:33:00.085Z,73.78
2019-02-22T22:35:31.351Z,73.65
2019-02-22T22:38:02.163Z,73.74
2019-02-22T22:40:33.147Z,73.41
2019-02-22T22:43:04.058Z,73.57
2019-02-22T22:45:35.025Z,73.66
2019-02-22T22:48:06.030Z,73.74
2019-02-22T22:50:37.198Z,73.96
2019-02-22T22:53:07.998Z,73.83
2019-02-22T22:55:39.455Z,74.16
2019-02-22T22:58:10.300Z,74.03
2019-02-22T23:01:13.385Z,74.34
2019-02-22T23:03:44.527Z,73.89
2019-02-22T23:06:16.694Z,73.88
2019-02-22T23:08:47.750Z,73.95
2019-02-22T23:11:18.946Z,73.76
2019-02-22T23:13:49.812Z,73.65
2019-02-22T23:16:20.694Z,73.60
2019-02-22T23:19:01.352Z,73.88
2019-02-22T23:21:24.255Z,73.58
2019-02-22T23:23:55.223Z,73.67
2019-02-22T23:26:26.216Z,73.70
2019-02-22T23:28:57.010Z,73.77
2019-02-22T23:31:27.871Z,74.04
2019-02-22T23:33:58.657Z,73.60
2019-02-22T23:36:30.282Z,73.73
2019-02-22T23:39:01.043Z,74.00
2019-02-22T23:41:33.570Z,73.51
2019-02-22T23:44:04.476Z,74.56
2019-02-22T23:46:35.750Z,74.65
2019-02-22T23:49:13.137Z,74.43
2019-02-22T23:51:39.223Z,74.56
2019-02-22T23:54:09.982Z,74.70
2019-02-22T23:56:40.847Z,74.76
2019-02-22T23:59:11.738Z,75.32
